Latest Coastal Weather Observations for Wyndham Airport

IDD60701

Issued at 9:01 am CST Thursday 30 June 2016 (issued every 10 minutes, with the page automatically refreshed every 10 minutes)

About coastal observations | Map of coastal stations | Coastal observations for NT | Marine services | Other Formats
Station Details ID: 001006 Name: WYNDHAM AERO Lat: -15.51 Lon: 128.15 Height: 3.8 m
Data from the previous 72 hours. | See also: Recent months at Wyndham Airport
Date/Time
CST
Temp
°C
Wind Pressure Rain since
9am
mm
Weather Cloud Vis
km
Sea
Height
m
Swell
Dir  Spd
kts
Gust
kts
hPa Trend Height
m
Period
s
Dir
30/09:00am 21.2 CALM 0 0 1017.9 - 0.0 - - - - - - -
30/08:30am 17.6 CALM 0 0 1017.7 - 0.0 - - - - - - -
30/08:00am 14.3 CALM 0 0 1017.3 - 0.0 - - - - - - -
30/07:30am 12.8 CALM 0 3 1016.9 - 0.0 - - - - - - -
30/07:00am 14.3 CALM 0 0 1016.7 - 0.0 - - - - - - -
30/06:30am 14.6 CALM 0 0 1016.3 - 0.0 - - - - - - -
30/06:00am 14.1 CALM 0 0 1016.2 - 0.0 - - - - - - -
30/05:30am 15.3 N 3 5 1016.2 - 0.0 - - - - - - -
30/05:00am 15.7 WNW 3 4 1016.0 - 0.0 - - - - - - -
30/04:30am 15.6 WNW 4 6 1016.0 - 0.0 - - - - - - -
30/04:00am 17.4 NW 4 5 1016.2 - 0.0 - - - - - - -
30/03:30am 16.5 N 1 5 1016.4 - 0.0 - - - - - - -
30/03:00am 17.5 SSW 4 5 1016.3 - 0.0 - - - - - - -
30/02:30am 17.3 SE 1 4 1016.4 - 0.0 - - - - - - -
30/02:00am 16.8 E 4 6 1016.8 - 0.0 - - - - - - -
30/01:30am 17.9 E 7 8 1017.1 - 0.0 - - - - - - -
30/01:00am 18.9 ENE 5 6 1017.2 - 0.0 - - - - - - -
30/12:30am 17.3 E 5 6 1017.3 - 0.0 - - - - - - -
30/12:00am 19.9 NNE 3 3 1017.2 - 0.0 - - - - - - -
 
Date/Time
CST
Temp
°C
Wind Pressure Rain since
9am
mm
Weather Cloud Vis
km
Sea
Height
m
Swell
Dir  Spd
kts
Gust
kts
hPa Trend Height
m
Period
s
Dir
29/11:30pm 18.5 CALM 0 0 1017.1 - 0.0 - - - - - - -
29/11:00pm 19.3 CALM 0 0 1017.0 - 0.0 - - - - - - -
29/10:30pm 20.6 E 2 4 1016.8 - 0.0 - - - - - - -
29/10:00pm 21.8 ENE 3 4 1016.6 - 0.0 - - - - - - -
29/09:30pm 22.6 ENE 3 4 1016.5 - 0.0 - - - - - - -
29/09:00pm 23.8 E 4 5 1016.2 - 0.0 - - - - - - -
29/08:30pm 24.0 E 4 5 1016.0 - 0.0 - - - - - - -
29/08:00pm 25.5 SE 6 7 1015.6 - 0.0 - - - - - - -
29/07:30pm 27.8 SSE 10 14 1015.2 - 0.0 - - - - - - -
29/07:00pm 28.6 SSE 12 16 1014.8 - 0.0 - - - - - - -
29/06:30pm 29.0 SSE 11 15 1014.5 - 0.0 - - - - - - -
29/06:00pm 30.3 SSE 9 13 1014.3 - 0.0 - - - - - - -
29/05:30pm 31.2 SE 11 14 1014.0 - 0.0 - - - - - - -
29/05:00pm 31.9 SSE 9 13 1013.6 - 0.0 - - - - - - -
29/04:30pm 32.1 SE 9 14 1013.4 - 0.0 - - - - - - -
29/04:00pm 32.0 SE 10 16 1013.4 - 0.0 - - - - - - -
29/03:30pm 32.0 ESE 9 16 1013.6 - 0.0 - - - - - - -
29/03:00pm 31.6 ENE 10 14 1014.0 - 0.0 - - - - - - -
29/02:30pm 30.9 E 9 14 1014.4 - 0.0 - - - - - - -
29/02:00pm 30.9 ESE 9 15 1015.0 - 0.0 - - - - - - -
29/01:30pm 30.1 ESE 8 16 1015.7 - 0.0 - - - - - - -
29/01:00pm 30.0 ESE 10 15 1016.4 - 0.0 - - - - - - -
29/12:30pm 29.2 ESE 11 17 1017.0 - 0.0 - - - - - - -
29/12:00pm 29.1 E 12 17 1017.3 - 0.0 - - - - - - -
29/11:30am 28.2 E 13 19 1017.6 - 0.0 - - - - - - -
29/11:00am 27.5 E 14 18 1018.0 - 0.0 - - - - - - -
29/10:30am 27.4 ESE 14 19 1018.2 - 0.0 - - - - - - -
29/10:00am 26.5 E 17 23 1018.3 - 0.0 - - - - - - -
29/09:30am 25.7 ESE 17 22 1018.1 - 0.0 - - - - - - -
29/09:00am 25.1 E 13 17 1017.9 - 0.0 - - - - - - -
29/08:30am 23.7 ESE 9 13 1017.7 - 0.0 - - - - - - -
29/08:00am 22.0 ESE 5 7 1017.5 - 0.0 - - - - - - -
29/07:30am 21.1 E 7 8 1017.3 - 0.0 - - - - - - -
29/07:00am 21.3 E 8 10 1016.9 - 0.0 - - - - - - -
29/06:30am 21.7 E 9 10 1016.7 - 0.0 - - - - - - -
29/06:00am 21.9 E 9 11 1016.4 - 0.0 - - - - - - -
29/05:30am 22.0 E 8 10 1016.3 - 0.0 - - - - - - -
29/05:00am 20.6 ESE 5 8 1016.1 - 0.0 - - - - - - -
29/04:30am 20.8 SSE 5 6 1016.1 - 0.0 - - - - - - -
29/04:00am 21.0 SSE 4 6 1016.0 - 0.0 - - - - - - -
29/03:30am 20.8 SE 3 3 1015.9 - 0.0 - - - - - - -
29/03:00am 21.4 E 5 6 1016.0 - 0.0 - - - - - - -
29/02:30am 22.9 E 7 8 1016.2 - 0.0 - - - - - - -
29/02:00am 20.9 E 4 6 1016.4 - 0.0 - - - - - - -
29/01:30am 21.5 E 4 5 1016.5 - 0.0 - - - - - - -
29/01:00am 21.6 E 5 6 1016.4 - 0.0 - - - - - - -
29/12:30am 21.1 ESE 4 5 1016.5 - 0.0 - - - - - - -
29/12:00am 22.9 E 3 4 1016.5 - 0.0 - - - - - - -
 
Date/Time
CST
Temp
°C
Wind Pressure Rain since
9am
mm
Weather Cloud Vis
km
Sea
Height
m
Swell
Dir  Spd
kts
Gust
kts
hPa Trend Height
m
Period
s
Dir
28/11:30pm 22.9 E 3 5 1016.5 - 0.0 - - - - - - -
28/11:00pm 23.8 E 3 4 1016.5 - 0.0 - - - - - - -
28/10:30pm 24.9 E 4 4 1016.5 - 0.0 - - - - - - -
28/10:00pm 25.0 ENE 4 4 1016.4 - 0.0 - - - - - - -
28/09:30pm 25.5 ENE 4 5 1016.3 - 0.0 - - - - - - -
28/09:00pm 25.1 ENE 4 5 1016.1 - 0.0 - - - - - - -
28/08:30pm 26.0 ESE 5 6 1015.7 - 0.0 - - - - - - -
28/08:00pm 25.6 ESE 6 6 1015.3 - 0.0 - - - - - - -
28/07:30pm 26.6 ESE 7 8 1014.9 - 0.0 - - - - - - -
28/07:00pm 28.3 ESE 8 9 1014.4 - 0.0 - - - - - - -
28/06:30pm 30.3 E 8 11 1014.0 - 0.0 - - - - - - -
28/06:00pm 31.2 E 9 11 1013.7 - 0.0 - - - - - - -
28/05:30pm 31.8 E 10 13 1013.4 - 0.0 - - - - - - -
28/05:00pm 32.0 E 8 11 1013.3 - 0.0 - - - - - - -
28/04:30pm 32.2 E 9 14 1013.2 - 0.0 - - - - - - -
28/04:00pm 32.4 ESE 9 16 1013.3 - 0.0 - - - - - - -
28/03:30pm 31.6 E 9 15 1013.5 - 0.0 - - - - - - -
28/03:00pm 32.3 ESE 10 14 1013.8 - 0.0 - - - - - - -
28/02:30pm 31.9 ENE 10 14 1014.0 - 0.0 - - - - - - -
28/02:00pm 31.3 ESE 11 16 1014.3 - 0.0 - - - - - - -
28/01:30pm 30.7 E 9 15 1014.8 - 0.0 - - - - - - -
28/01:00pm 30.2 ESE 12 18 1015.3 - 0.0 - - - - - - -
28/12:30pm 29.7 E 11 19 1015.7 - 0.0 - - - - - - -
28/12:00pm 29.8 E 12 18 1016.3 - 0.0 - - - - - - -
28/11:30am 29.2 E 13 17 1016.6 - 0.0 - - - - - - -
28/11:00am 28.2 ESE 14 18 1016.8 - 0.0 - - - - - - -
28/10:30am 28.1 ESE 14 18 1016.9 - 0.0 - - - - - - -
28/10:00am 27.2 E 17 24 1016.9 - 0.0 - - - - - - -
28/09:30am 27.0 ESE 15 19 1016.7 - 0.0 - - - - - - -
28/09:00am 26.0 ESE 15 18 1016.5 - 0.0 - - - - - - -
28/08:30am 25.1 E 11 14 1016.2 - 0.0 - - - - - - -
28/08:00am 23.6 E 7 11 1015.9 - 0.0 - - - - - - -
28/07:30am 22.3 E 6 8 1015.3 - 0.0 - - - - - - -
28/07:00am 22.5 E 7 8 1014.7 - 0.0 - - - - - - -
28/06:30am 21.7 ESE 7 8 1014.1 - 0.0 - - - - - - -
28/06:00am 22.8 ESE 7 9 1013.8 - 0.0 - - - - - - -
28/05:30am 23.4 E 9 11 1013.5 - 0.0 - - - - - - -
28/05:00am 23.8 E 10 11 1013.4 - 0.0 - - - - - - -
28/04:30am 23.1 E 9 10 1013.3 - 0.0 - - - - - - -
28/04:00am 22.3 ESE 9 9 1013.2 - 0.0 - - - - - - -
28/03:30am 21.1 ESE 5 7 1013.4 - 0.0 - - - - - - -
28/03:00am 23.6 E 7 8 1013.5 - 0.0 - - - - - - -
28/02:30am 24.3 E 7 8 1013.8 - 0.0 - - - - - - -
28/02:00am 24.9 E 8 9 1014.1 - 0.0 - - - - - - -
28/01:30am 24.3 E 8 9 1014.1 - 0.0 - - - - - - -
28/01:00am 24.6 E 7 7 1014.3 - 0.0 - - - - - - -
28/12:30am 24.3 E 6 7 1014.4 - 0.0 - - - - - - -
28/12:00am 24.7 E 6 7 1014.5 - 0.0 - - - - - - -
 
Date/Time
CST
Temp
°C
Wind Pressure Rain since
9am
mm
Weather Cloud Vis
km
Sea
Height
m
Swell
Dir  Spd
kts
Gust
kts
hPa Trend Height
m
Period
s
Dir
27/11:30pm 25.0 E 5 6 1014.6 - 0.0 - - - - - - -
27/11:00pm 24.8 E 5 6 1014.6 - 0.0 - - - - - - -
27/10:30pm 25.4 ENE 5 5 1014.6 - 0.0 - - - - - - -
27/10:00pm 24.5 ENE 1 4 1014.4 - 0.0 - - - - - - -
27/09:30pm 25.1 CALM 0 0 1014.1 - 0.0 - - - - - - -
27/09:00pm 25.8 CALM 0 0 1014.0 - 0.0 - - - - - - -
27/08:30pm 26.3 ENE 2 4 1013.6 - 0.0 - - - - - - -
27/08:00pm 26.8 E 5 5 1013.2 - 0.0 - - - - - - -
27/07:30pm 27.0 SE 7 9 1012.8 - 0.0 - - - - - - -
27/07:00pm 29.1 E 7 8 1012.4 - 0.0 - - - - - - -
27/06:30pm 30.7 E 9 11 1012.0 - 0.0 - - - - - - -
27/06:00pm 31.7 ESE 8 10 1011.6 - 0.0 - - - - - - -
27/05:30pm 32.4 E 9 13 1011.5 - 0.0 - - - - - - -
27/05:00pm 32.7 E 11 14 1011.1 - 0.0 - - - - - - -
27/04:30pm 33.0 ESE 11 15 1011.2 - 0.0 - - - - - - -
27/04:00pm 33.0 ESE 9 15 1011.2 - 0.0 - - - - - - -
27/03:30pm 32.2 ESE 8 12 1011.4 - 0.0 - - - - - - -
27/03:00pm 32.5 ESE 11 16 1011.7 - 0.0 - - - - - - -
27/02:30pm 32.1 ESE 8 16 1012.0 - 0.0 - - - - - - -
27/02:00pm 31.1 SE 12 23 1012.5 - 0.0 - - - - - - -
27/01:30pm 31.1 SE 13 20 1012.7 - 0.0 - - - - - - -
27/01:00pm 31.0 SE 14 19 1013.3 - 0.0 - - - - - - -
27/12:30pm 30.5 SE 13 18 1013.9 - 0.0 - - - - - - -
27/12:00pm 30.1 SE 14 18 1014.3 - 0.0 - - - - - - -
27/11:30am 29.2 SE 15 20 1014.6 - 0.0 - - - - - - -
27/11:00am 28.8 SE 15 21 1014.8 - 0.0 - - - - - - -

Other Formats:

Comma delimited format used in spreadsheet applications
http://www.bom.gov.au/fwo/IDD60701/IDD60701.95214.axf

JavaScript Object Notation format (JSON) in row-major order
http://www.bom.gov.au/fwo/IDD60701/IDD60701.95214.json